sensor_id;sensor_type;location;lat;lon;timestamp;pressure;altitude;pressure_sealevel;temperature;humidity
74982;BME280;63532;50.766;18.944;2022-09-27T00:02:14;97279.22;;;22.76;76.16
74982;BME280;63532;50.766;18.944;2022-09-27T00:04:40;97276.50;;;22.76;70.77
74982;BME280;63532;50.766;18.944;2022-09-27T00:07:05;97271.59;;;22.78;72.86
74982;BME280;63532;50.766;18.944;2022-09-27T00:09:31;97278.69;;;22.79;73.31
74982;BME280;63532;50.766;18.944;2022-09-27T00:11:56;97270.50;;;22.79;73.24
74982;BME280;63532;50.766;18.944;2022-09-27T00:14:21;97278.16;;;22.82;72.91
74982;BME280;63532;50.766;18.944;2022-09-27T00:16:47;97276.22;;;22.82;74.25
74982;BME280;63532;50.766;18.944;2022-09-27T00:19:13;97272.66;;;22.82;73.83
74982;BME280;63532;50.766;18.944;2022-09-27T00:21:39;97267.19;;;22.82;74.57
74982;BME280;63532;50.766;18.944;2022-09-27T00:24:04;97262.81;;;22.81;73.65
74982;BME280;63532;50.766;18.944;2022-09-27T00:26:29;97260.06;;;22.81;72.22
74982;BME280;63532;50.766;18.944;2022-09-27T00:28:54;97252.41;;;22.83;73.85
74982;BME280;63532;50.766;18.944;2022-09-27T00:31:21;97248.56;;;22.84;73.53
74982;BME280;63532;50.766;18.944;2022-09-27T00:33:47;97245.84;;;22.84;73.06
74982;BME280;63532;50.766;18.944;2022-09-27T00:36:13;97244.72;;;22.85;73.74
74982;BME280;63532;50.766;18.944;2022-09-27T00:38:39;97236.53;;;22.85;73.65
74982;BME280;63532;50.766;18.944;2022-09-27T00:41:04;97235.69;;;22.84;73.28
74982;BME280;63532;50.766;18.944;2022-09-27T00:43:40;97239.25;;;22.85;73.67
74982;BME280;63532;50.766;18.944;2022-09-27T00:46:06;97235.97;;;22.88;73.38
74982;BME280;63532;50.766;18.944;2022-09-27T00:48:32;97235.41;;;22.86;72.45
74982;BME280;63532;50.766;18.944;2022-09-27T00:51:00;97222.28;;;22.88;73.80
74982;BME280;63532;50.766;18.944;2022-09-27T00:53:29;97231.59;;;22.87;73.33
74982;BME280;63532;50.766;18.944;2022-09-27T00:55:56;97231.59;;;22.87;72.26
74982;BME280;63532;50.766;18.944;2022-09-27T00:58:27;97226.94;;;22.87;73.19
74982;BME280;63532;50.766;18.944;2022-09-27T01:00:55;97215.69;;;22.89;72.88
74982;BME280;63532;50.766;18.944;2022-09-27T01:03:23;97223.38;;;22.87;73.39
74982;BME280;63532;50.766;18.944;2022-09-27T01:05:50;97225.00;;;22.88;73.13
74982;BME280;63532;50.766;18.944;2022-09-27T01:08:16;97222.28;;;22.88;73.05
74982;BME280;63532;50.766;18.944;2022-09-27T01:10:45;97221.16;;;22.89;72.93
74982;BME280;63532;50.766;18.944;2022-09-27T01:13:36;97219.25;;;22.89;72.50
74982;BME280;63532;50.766;18.944;2022-09-27T01:16:22;97208.59;;;22.88;72.24
74982;BME280;63532;50.766;18.944;2022-09-27T01:18:56;97200.38;;;22.88;72.94
74982;BME280;63532;50.766;18.944;2022-09-27T01:21:58;97201.19;;;22.88;71.93
74982;BME280;63532;50.766;18.944;2022-09-27T01:24:26;97200.91;;;22.90;72.51
74982;BME280;63532;50.766;18.944;2022-09-27T01:32:43;97187.22;;;22.90;72.81
74982;BME280;63532;50.766;18.944;2022-09-27T01:37:25;97178.47;;;22.88;71.92
74982;BME280;63532;50.766;18.944;2022-09-27T01:42:42;97165.31;;;22.90;72.23
74982;BME280;63532;50.766;18.944;2022-09-27T01:45:18;97172.41;;;22.91;72.31
74982;BME280;63532;50.766;18.944;2022-09-27T01:47:47;97167.75;;;22.92;72.65
74982;BME280;63532;50.766;18.944;2022-09-27T01:50:16;97157.09;;;22.90;72.12
74982;BME280;63532;50.766;18.944;2022-09-27T01:52:52;97146.44;;;22.88;72.69
74982;BME280;63532;50.766;18.944;2022-09-27T01:55:19;97166.94;;;22.91;71.83
74982;BME280;63532;50.766;18.944;2022-09-27T01:57:49;97155.19;;;22.90;71.27
74982;BME280;63532;50.766;18.944;2022-09-27T02:00:17;97156.00;;;22.91;72.23
74982;BME280;63532;50.766;18.944;2022-09-27T02:02:47;97161.47;;;22.91;72.08
74982;BME280;63532;50.766;18.944;2022-09-27T02:05:14;97141.19;;;22.92;71.82
74982;BME280;63532;50.766;18.944;2022-09-27T02:07:47;97141.19;;;22.92;72.35
74982;BME280;63532;50.766;18.944;2022-09-27T02:10:18;97130.25;;;22.92;72.59
74982;BME280;63532;50.766;18.944;2022-09-27T02:12:48;97138.47;;;22.92;72.58
74982;BME280;63532;50.766;18.944;2022-09-27T02:15:15;97133.00;;;22.92;72.39
74982;BME280;63532;50.766;18.944;2022-09-27T02:17:57;97118.47;;;22.92;72.19
74982;BME280;63532;50.766;18.944;2022-09-27T02:23:00;97126.41;;;22.93;72.21
74982;BME280;63532;50.766;18.944;2022-09-27T02:25:29;97121.22;;;22.92;71.61
74982;BME280;63532;50.766;18.944;2022-09-27T02:30:41;97119.28;;;22.92;71.91
74982;BME280;63532;50.766;18.944;2022-09-27T02:33:07;97117.09;;;22.94;71.49
74982;BME280;63532;50.766;18.944;2022-09-27T02:35:33;97115.47;;;22.93;72.08
74982;BME280;63532;50.766;18.944;2022-09-27T02:37:58;97115.47;;;22.93;71.42
74982;BME280;63532;50.766;18.944;2022-09-27T02:40:24;97109.97;;;22.93;71.17
74982;BME280;63532;50.766;18.944;2022-09-27T02:42:53;97120.94;;;22.93;71.77
74982;BME280;63532;50.766;18.944;2022-09-27T02:45:18;97109.97;;;22.93;71.28
74982;BME280;63532;50.766;18.944;2022-09-27T02:48:06;97108.06;;;22.94;71.43
74982;BME280;63532;50.766;18.944;2022-09-27T02:50:46;97107.25;;;22.93;71.91
74982;BME280;63532;50.766;18.944;2022-09-27T02:55:50;97108.34;;;22.92;71.53
74982;BME280;63532;50.766;18.944;2022-09-27T02:58:46;97102.88;;;22.92;71.77
74982;BME280;63532;50.766;18.944;2022-09-27T03:01:22;97102.59;;;22.94;71.15
74982;BME280;63532;50.766;18.944;2022-09-27T03:06:35;97091.31;;;22.95;70.93
74982;BME280;63532;50.766;18.944;2022-09-27T03:09:02;97086.97;;;22.94;71.88
74982;BME280;63532;50.766;18.944;2022-09-27T03:11:27;97093.28;;;22.95;70.78
74982;BME280;63532;50.766;18.944;2022-09-27T03:13:52;97090.53;;;22.95;71.99
74982;BME280;63532;50.766;18.944;2022-09-27T03:16:17;97095.19;;;22.94;71.69
74982;BME280;63532;50.766;18.944;2022-09-27T03:18:43;97092.44;;;22.94;70.90
74982;BME280;63532;50.766;18.944;2022-09-27T03:21:09;97085.06;;;22.95;71.83
74982;BME280;63532;50.766;18.944;2022-09-27T03:23:34;97088.56;;;22.95;70.80
74982;BME280;63532;50.766;18.944;2022-09-27T03:25:59;97089.72;;;22.94;70.35
74982;BME280;63532;50.766;18.944;2022-09-27T03:28:24;97086.97;;;22.94;71.58
74982;BME280;63532;50.766;18.944;2022-09-27T03:30:49;97079.25;;;22.96;71.12
74982;BME280;63532;50.766;18.944;2022-09-27T03:33:15;97071.06;;;22.96;71.37
74982;BME280;63532;50.766;18.944;2022-09-27T03:35:40;97062.31;;;22.94;70.45
74982;BME280;63532;50.766;18.944;2022-09-27T03:38:06;97066.69;;;22.95;70.31
74982;BME280;63532;50.766;18.944;2022-09-27T03:40:32;97065.06;;;22.94;70.38
74982;BME280;63532;50.766;18.944;2022-09-27T03:42:57;97056.84;;;22.94;70.05
74982;BME280;63532;50.766;18.944;2022-09-27T03:45:22;97061.19;;;22.95;70.92
74982;BME280;63532;50.766;18.944;2022-09-27T03:47:47;97063.94;;;22.95;70.57
74982;BME280;63532;50.766;18.944;2022-09-27T03:50:12;97065.56;;;22.96;71.39
74982;BME280;63532;50.766;18.944;2022-09-27T03:52:38;97060.09;;;22.96;70.81
74982;BME280;63532;50.766;18.944;2022-09-27T03:55:03;97057.66;;;22.95;70.50
74982;BME280;63532;50.766;18.944;2022-09-27T03:57:28;97054.63;;;22.96;70.68
74982;BME280;63532;50.766;18.944;2022-09-27T03:59:55;97051.06;;;22.96;71.18
74982;BME280;63532;50.766;18.944;2022-09-27T04:02:20;97045.59;;;22.96;70.38
74982;BME280;63532;50.766;18.944;2022-09-27T04:04:45;97044.78;;;22.95;70.80
74982;BME280;63532;50.766;18.944;2022-09-27T04:07:11;97039.81;;;22.97;70.48
74982;BME280;63532;50.766;18.944;2022-09-27T04:09:36;97039.28;;;22.95;70.18
74982;BME280;63532;50.766;18.944;2022-09-27T04:12:02;97042.03;;;22.95;70.88
74982;BME280;63532;50.766;18.944;2022-09-27T04:14:27;97039.28;;;22.95;69.69
74982;BME280;63532;50.766;18.944;2022-09-27T04:16:52;97034.34;;;22.97;70.61
74982;BME280;63532;50.766;18.944;2022-09-27T04:19:17;97030.78;;;22.97;70.01
74982;BME280;63532;50.766;18.944;2022-09-27T04:21:42;97027.22;;;22.96;70.21
74982;BME280;63532;50.766;18.944;2022-09-27T04:24:08;97025.59;;;22.95;70.51
74982;BME280;63532;50.766;18.944;2022-09-27T04:26:34;97021.75;;;22.96;70.52
74982;BME280;63532;50.766;18.944;2022-09-27T04:29:01;97024.50;;;22.96;70.29
74982;BME280;63532;50.766;18.944;2022-09-27T04:31:26;97020.94;;;22.96;69.61
74982;BME280;63532;50.766;18.944;2022-09-27T04:33:51;97024.50;;;22.96;70.35
74982;BME280;63532;50.766;18.944;2022-09-27T04:36:18;97021.75;;;22.96;69.81
74982;BME280;63532;50.766;18.944;2022-09-27T04:38:57;97033.53;;;22.97;70.19
74982;BME280;63532;50.766;18.944;2022-09-27T04:41:23;97035.97;;;22.98;70.46
74982;BME280;63532;50.766;18.944;2022-09-27T04:43:49;97028.88;;;22.97;69.96
74982;BME280;63532;50.766;18.944;2022-09-27T04:46:15;97037.38;;;22.96;69.71
74982;BME280;63532;50.766;18.944;2022-09-27T04:48:40;97042.84;;;22.96;69.54
74982;BME280;63532;50.766;18.944;2022-09-27T04:51:05;97042.03;;;22.95;69.70
74982;BME280;63532;50.766;18.944;2022-09-27T04:53:31;97030.28;;;22.95;69.35
74982;BME280;63532;50.766;18.944;2022-09-27T04:55:56;97042.03;;;22.95;69.29
74982;BME280;63532;50.766;18.944;2022-09-27T04:58:22;97035.16;;;22.98;70.06
74982;BME280;63532;50.766;18.944;2022-09-27T05:00:47;97039.00;;;22.97;69.34
74982;BME280;63532;50.766;18.944;2022-09-27T05:03:13;97039.81;;;22.97;69.80
74982;BME280;63532;50.766;18.944;2022-09-27T05:05:39;97038.72;;;22.98;69.74
74982;BME280;63532;50.766;18.944;2022-09-27T05:08:05;97037.09;;;22.97;69.33
74982;BME280;63532;50.766;18.944;2022-09-27T05:10:30;97017.09;;;22.97;68.80
74982;BME280;63532;50.766;18.944;2022-09-27T05:12:55;97029.69;;;22.98;68.88
74982;BME280;63532;50.766;18.944;2022-09-27T05:15:21;97027.22;;;22.96;69.32
74982;BME280;63532;50.766;18.944;2022-09-27T05:17:46;97031.06;;;22.95;69.57
74982;BME280;63532;50.766;18.944;2022-09-27T05:20:11;97027.22;;;22.96;68.82
74982;BME280;63532;50.766;18.944;2022-09-27T05:22:38;97028.88;;;22.97;69.30
74982;BME280;63532;50.766;18.944;2022-09-27T05:25:04;97027.22;;;22.96;69.29
74982;BME280;63532;50.766;18.944;2022-09-27T05:27:29;97027.22;;;22.96;68.85
74982;BME280;63532;50.766;18.944;2022-09-27T05:29:55;97024.22;;;22.98;70.06
74982;BME280;63532;50.766;18.944;2022-09-27T05:32:21;97025.84;;;22.99;68.56
74982;BME280;63532;50.766;18.944;2022-09-27T05:34:46;97020.66;;;22.97;67.84
74982;BME280;63532;50.766;18.944;2022-09-27T05:37:11;97023.94;;;22.99;68.75
74982;BME280;63532;50.766;18.944;2022-09-27T05:39:37;97024.50;;;22.96;68.38
74982;BME280;63532;50.766;18.944;2022-09-27T05:42:02;97014.06;;;22.98;69.09
74982;BME280;63532;50.766;18.944;2022-09-27T05:44:28;97009.16;;;22.95;68.89
74982;BME280;63532;50.766;18.944;2022-09-27T05:46:54;97010.81;;;22.96;68.28
74982;BME280;63532;50.766;18.944;2022-09-27T05:49:20;97012.44;;;22.97;68.97
74982;BME280;63532;50.766;18.944;2022-09-27T05:51:45;97011.63;;;22.97;68.84
74982;BME280;63532;50.766;18.944;2022-09-27T05:54:11;97012.97;;;22.99;68.72
74982;BME280;63532;50.766;18.944;2022-09-27T05:56:36;97008.59;;;22.98;68.81
74982;BME280;63532;50.766;18.944;2022-09-27T05:59:02;97006.97;;;22.97;68.68
74982;BME280;63532;50.766;18.944;2022-09-27T06:01:27;97007.50;;;22.99;69.08
74982;BME280;63532;50.766;18.944;2022-09-27T06:03:53;97009.41;;;22.99;68.38
74982;BME280;63532;50.766;18.944;2022-09-27T06:06:19;97018.97;;;23.01;68.49
74982;BME280;63532;50.766;18.944;2022-09-27T06:08:44;97016.78;;;23.03;68.34
74982;BME280;63532;50.766;18.944;2022-09-27T06:11:10;97011.59;;;23.02;68.32
74982;BME280;63532;50.766;18.944;2022-09-27T06:13:39;97017.88;;;23.02;68.29
74982;BME280;63532;50.766;18.944;2022-09-27T06:16:05;97023.06;;;23.04;67.96
74982;BME280;63532;50.766;18.944;2022-09-27T06:18:30;97022.50;;;23.07;70.77
74982;BME280;63532;50.766;18.944;2022-09-27T06:20:57;97028.22;;;23.10;69.54
74982;BME280;63532;50.766;18.944;2022-09-27T06:23:23;97024.94;;;23.08;67.97
74982;BME280;63532;50.766;18.944;2022-09-27T06:25:48;97022.22;;;23.08;69.42
74982;BME280;63532;50.766;18.944;2022-09-27T06:28:15;97022.75;;;23.10;67.53
74982;BME280;63532;50.766;18.944;2022-09-27T06:30:41;97017.91;;;22.24;62.64
74982;BME280;63532;50.766;18.944;2022-09-27T06:33:08;97025.72;;;21.86;59.68
74982;BME280;63532;50.766;18.944;2022-09-27T06:35:34;97026.84;;;21.70;58.84
74982;BME280;63532;50.766;18.944;2022-09-27T06:38:03;97019.34;;;21.11;60.54
74982;BME280;63532;50.766;18.944;2022-09-27T06:40:29;97023.22;;;21.95;63.65
74982;BME280;63532;50.766;18.944;2022-09-27T06:42:55;97018.34;;;22.36;64.80
74982;BME280;63532;50.766;18.944;2022-09-27T06:45:26;97016.66;;;22.50;64.57
74982;BME280;63532;50.766;18.944;2022-09-27T06:47:52;97003.97;;;22.60;63.28
74982;BME280;63532;50.766;18.944;2022-09-27T06:51:31;96990.25;;;23.28;64.25
74982;BME280;63532;50.766;18.944;2022-09-27T06:53:57;96994.81;;;23.37;63.71
74982;BME280;63532;50.766;18.944;2022-09-27T06:56:22;96990.97;;;23.38;63.07
74982;BME280;63532;50.766;18.944;2022-09-27T06:58:47;96993.91;;;23.42;64.63
74982;BME280;63532;50.766;18.944;2022-09-27T07:01:31;96995.03;;;23.41;64.34
74982;BME280;63532;50.766;18.944;2022-09-27T07:03:56;96996.66;;;23.42;63.72
74982;BME280;63532;50.766;18.944;2022-09-27T07:06:22;97003.53;;;23.39;62.71
74982;BME280;63532;50.766;18.944;2022-09-27T07:08:50;97002.13;;;23.42;63.76
74982;BME280;63532;50.766;18.944;2022-09-27T07:11:16;96987.34;;;23.43;64.32
74982;BME280;63532;50.766;18.944;2022-09-27T07:13:42;96987.91;;;23.40;62.54
74982;BME280;63532;50.766;18.944;2022-09-27T07:16:09;96998.28;;;23.43;63.00
74982;BME280;63532;50.766;18.944;2022-09-27T07:18:35;97006.50;;;23.43;62.25
74982;BME280;63532;50.766;18.944;2022-09-27T07:21:00;96995.84;;;23.41;63.43
74982;BME280;63532;50.766;18.944;2022-09-27T07:23:26;96997.75;;;23.41;61.49
74982;BME280;63532;50.766;18.944;2022-09-27T07:25:51;97002.44;;;23.40;61.59
74982;BME280;63532;50.766;18.944;2022-09-27T07:28:17;96992.56;;;23.39;61.01
74982;BME280;63532;50.766;18.944;2022-09-27T07:30:43;96993.38;;;23.40;61.11
74982;BME280;63532;50.766;18.944;2022-09-27T07:33:08;97003.53;;;23.39;60.87
74982;BME280;63532;50.766;18.944;2022-09-27T07:35:34;96990.66;;;23.40;61.83
74982;BME280;63532;50.766;18.944;2022-09-27T07:38:03;96998.38;;;23.38;63.43
74982;BME280;63532;50.766;18.944;2022-09-27T07:40:29;96992.81;;;23.43;63.66
74982;BME280;63532;50.766;18.944;2022-09-27T07:42:57;96987.34;;;23.43;64.06
74982;BME280;63532;50.766;18.944;2022-09-27T07:45:23;96985.13;;;23.45;64.18
74982;BME280;63532;50.766;18.944;2022-09-27T07:47:48;96986.75;;;23.46;62.98
74982;BME280;63532;50.766;18.944;2022-09-27T07:50:14;96984.53;;;23.48;63.05
74982;BME280;63532;50.766;18.944;2022-09-27T07:52:40;96988.63;;;23.50;63.00
74982;BME280;63532;50.766;18.944;2022-09-27T07:55:06;96987.53;;;23.51;63.41
74982;BME280;63532;50.766;18.944;2022-09-27T07:57:31;96984.53;;;23.53;63.46
74982;BME280;63532;50.766;18.944;2022-09-27T07:59:56;96983.69;;;23.52;63.60
74982;BME280;63532;50.766;18.944;2022-09-27T08:02:21;96987.78;;;23.55;63.48
74982;BME280;63532;50.766;18.944;2022-09-27T08:04:48;96979.56;;;23.55;63.30
74982;BME280;63532;50.766;18.944;2022-09-27T08:07:13;96982.03;;;23.56;63.64
74982;BME280;63532;50.766;18.944;2022-09-27T08:09:38;96983.41;;;23.54;64.74
74982;BME280;63532;50.766;18.944;2022-09-27T08:12:03;96983.47;;;23.44;64.41
74982;BME280;63532;50.766;18.944;2022-09-27T08:14:29;96987.91;;;23.40;61.89
74982;BME280;63532;50.766;18.944;2022-09-27T08:16:54;96985.59;;;23.28;60.07
74982;BME280;63532;50.766;18.944;2022-09-27T08:19:19;96988.09;;;23.24;61.51
74982;BME280;63532;50.766;18.944;2022-09-27T08:21:45;96989.75;;;23.20;61.36
74982;BME280;63532;50.766;18.944;2022-09-27T08:24:11;96979.97;;;23.14;60.33
74982;BME280;63532;50.766;18.944;2022-09-27T08:26:37;96975.09;;;23.11;59.47
74982;BME280;63532;50.766;18.944;2022-09-27T08:29:02;96974.84;;;23.08;58.59
74982;BME280;63532;50.766;18.944;2022-09-27T08:31:27;96969.94;;;23.05;59.34
74982;BME280;63532;50.766;18.944;2022-09-27T08:33:52;96969.69;;;23.01;61.66
74982;BME280;63532;50.766;18.944;2022-09-27T08:36:18;96964.25;;;22.96;61.67
74982;BME280;63532;50.766;18.944;2022-09-27T08:38:47;96963.16;;;22.97;61.53
74982;BME280;63532;50.766;18.944;2022-09-27T08:41:15;96961.31;;;22.93;61.31
74982;BME280;63532;50.766;18.944;2022-09-27T08:43:49;96960.50;;;22.92;61.88
74982;BME280;63532;50.766;18.944;2022-09-27T08:46:22;96947.94;;;22.86;61.77
74982;BME280;63532;50.766;18.944;2022-09-27T08:48:52;96948.22;;;22.84;61.46
74982;BME280;63532;50.766;18.944;2022-09-27T08:51:20;96946.88;;;22.82;62.05
74982;BME280;63532;50.766;18.944;2022-09-27T08:53:47;96939.25;;;22.79;61.77
74982;BME280;63532;50.766;18.944;2022-09-27T08:56:15;96937.03;;;22.81;61.44
74982;BME280;63532;50.766;18.944;2022-09-27T08:59:03;96932.13;;;22.78;62.30
74982;BME280;63532;50.766;18.944;2022-09-27T09:01:31;96943.94;;;22.73;62.09
74982;BME280;63532;50.766;18.944;2022-09-27T09:03:57;96931.91;;;22.69;61.00
74982;BME280;63532;50.766;18.944;2022-09-27T09:06:27;96928.38;;;22.69;61.42
74982;BME280;63532;50.766;18.944;2022-09-27T09:09:10;96927.84;;;22.67;60.96
74982;BME280;63532;50.766;18.944;2022-09-27T09:19:51;96912.19;;;22.72;61.27
74982;BME280;63532;50.766;18.944;2022-09-27T09:27:26;96928.38;;;22.69;60.47
74982;BME280;63532;50.766;18.944;2022-09-27T09:32:29;96921.59;;;22.61;58.09
74982;BME280;63532;50.766;18.944;2022-09-27T09:34:59;96921.84;;;22.65;58.15
74982;BME280;63532;50.766;18.944;2022-09-27T09:37:33;96923.53;;;22.89;57.10
74982;BME280;63532;50.766;18.944;2022-09-27T09:40:04;96920.03;;;22.84;57.31
74982;BME280;63532;50.766;18.944;2022-09-27T09:42:38;96913.50;;;22.80;57.76
74982;BME280;63532;50.766;18.944;2022-09-27T09:50:22;96898.38;;;22.87;57.54
74982;BME280;63532;50.766;18.944;2022-09-27T09:53:04;96899.72;;;22.90;57.72
74982;BME280;63532;50.766;18.944;2022-09-27T09:55:36;96898.63;;;22.91;58.25
74982;BME280;63532;50.766;18.944;2022-09-27T09:58:05;96897.56;;;22.87;58.63
74982;BME280;63532;50.766;18.944;2022-09-27T10:00:31;96885.56;;;22.83;57.55
74982;BME280;63532;50.766;18.944;2022-09-27T10:02:57;96882.81;;;22.83;56.81
74982;BME280;63532;50.766;18.944;2022-09-27T10:05:24;96884.72;;;22.82;57.57
74982;BME280;63532;50.766;18.944;2022-09-27T10:07:50;96875.72;;;22.77;57.79
74982;BME280;63532;50.766;18.944;2022-09-27T10:10:17;96879.00;;;22.79;56.67
74982;BME280;63532;50.766;18.944;2022-09-27T10:12:43;96880.66;;;22.80;57.13
74982;BME280;63532;50.766;18.944;2022-09-27T10:15:13;96872.97;;;22.77;57.23
74982;BME280;63532;50.766;18.944;2022-09-27T10:17:39;96871.63;;;22.74;56.14
74982;BME280;63532;50.766;18.944;2022-09-27T10:20:05;96870.53;;;22.75;56.58
74982;BME280;63532;50.766;18.944;2022-09-27T10:22:38;96864.75;;;22.77;56.96
74982;BME280;63532;50.766;18.944;2022-09-27T10:25:05;96853.81;;;22.77;56.35
74982;BME280;63532;50.766;18.944;2022-09-27T10:27:39;96849.44;;;22.76;57.24
74982;BME280;63532;50.766;18.944;2022-09-27T10:30:26;96845.06;;;22.75;55.80
74982;BME280;63532;50.766;18.944;2022-09-27T10:32:51;96838.78;;;22.74;56.42
74982;BME280;63532;50.766;18.944;2022-09-27T10:35:38;96828.66;;;22.75;56.39
74982;BME280;63532;50.766;18.944;2022-09-27T10:40:48;96832.50;;;22.74;56.34
74982;BME280;63532;50.766;18.944;2022-09-27T10:43:32;96833.31;;;22.74;56.52
74982;BME280;63532;50.766;18.944;2022-09-27T10:48:32;96823.19;;;22.75;57.16
74982;BME280;63532;50.766;18.944;2022-09-27T10:51:01;96820.16;;;22.76;56.65
74982;BME280;63532;50.766;18.944;2022-09-27T10:53:28;96823.44;;;22.78;56.94
74982;BME280;63532;50.766;18.944;2022-09-27T10:55:54;96817.16;;;22.78;57.14
74982;BME280;63532;50.766;18.944;2022-09-27T10:58:27;96816.34;;;22.77;57.15
74982;BME280;63532;50.766;18.944;2022-09-27T11:00:56;96814.47;;;22.73;55.12
74982;BME280;63532;50.766;18.944;2022-09-27T11:03:22;96812.31;;;22.70;55.56
74982;BME280;63532;50.766;18.944;2022-09-27T11:05:49;96807.94;;;22.69;55.71
74982;BME280;63532;50.766;18.944;2022-09-27T11:10:43;96801.41;;;22.65;54.59
74982;BME280;63532;50.766;18.944;2022-09-27T11:15:40;96803.63;;;22.63;53.94
74982;BME280;63532;50.766;18.944;2022-09-27T11:18:14;96797.34;;;22.62;54.20
74982;BME280;63532;50.766;18.944;2022-09-27T11:20:45;96797.34;;;22.62;54.13
74982;BME280;63532;50.766;18.944;2022-09-27T11:23:20;96797.03;;;22.64;54.74
74982;BME280;63532;50.766;18.944;2022-09-27T11:26:04;96797.00;;;22.69;54.83
74982;BME280;63532;50.766;18.944;2022-09-27T11:31:16;96789.34;;;22.66;54.08
74982;BME280;63532;50.766;18.944;2022-09-27T11:33:55;96776.78;;;22.65;54.82
74982;BME280;63532;50.766;18.944;2022-09-27T11:39:08;96781.16;;;22.66;54.29
74982;BME280;63532;50.766;18.944;2022-09-27T11:41:44;96780.03;;;22.67;53.94
74982;BME280;63532;50.766;18.944;2022-09-27T11:46:41;96773.47;;;22.68;54.24
74982;BME280;63532;50.766;18.944;2022-09-27T11:51:51;96769.38;;;22.65;53.55
74982;BME280;63532;50.766;18.944;2022-09-27T11:54:43;96772.41;;;22.64;53.24
74982;BME280;63532;50.766;18.944;2022-09-27T11:57:21;96768.56;;;22.65;53.22
74982;BME280;63532;50.766;18.944;2022-09-27T12:05:17;96759.31;;;22.61;52.87
74982;BME280;63532;50.766;18.944;2022-09-27T12:07:48;96754.41;;;22.57;52.16
74982;BME280;63532;50.766;18.944;2022-09-27T12:10:17;96751.69;;;22.57;52.59
74982;BME280;63532;50.766;18.944;2022-09-27T12:12:44;96752.50;;;22.58;53.34
74982;BME280;63532;50.766;18.944;2022-09-27T12:15:19;96757.16;;;22.57;53.11
74982;BME280;63532;50.766;18.944;2022-09-27T12:17:47;96757.16;;;22.57;52.55
74982;BME280;63532;50.766;18.944;2022-09-27T12:20:21;96744.28;;;22.58;53.02
74982;BME280;63532;50.766;18.944;2022-09-27T12:22:54;96755.50;;;22.56;52.74
74982;BME280;63532;50.766;18.944;2022-09-27T12:25:19;96751.44;;;22.54;52.51
74982;BME280;63532;50.766;18.944;2022-09-27T12:27:56;96739.00;;;22.67;52.85
74982;BME280;63532;50.766;18.944;2022-09-27T12:30:25;96737.72;;;22.59;52.34
74982;BME280;63532;50.766;18.944;2022-09-27T12:35:35;96725.13;;;22.58;52.88
74982;BME280;63532;50.766;18.944;2022-09-27T12:38:08;96729.78;;;22.57;53.12
74982;BME280;63532;50.766;18.944;2022-09-27T12:40:40;96724.31;;;22.57;53.48
74982;BME280;63532;50.766;18.944;2022-09-27T12:43:19;96725.13;;;22.58;53.51
74982;BME280;63532;50.766;18.944;2022-09-27T12:45:50;96723.22;;;22.58;53.43
74982;BME280;63532;50.766;18.944;2022-09-27T12:48:22;96725.94;;;22.58;53.17
74982;BME280;63532;50.766;18.944;2022-09-27T12:51:00;96728.97;;;22.57;53.22
74982;BME280;63532;50.766;18.944;2022-09-27T12:53:38;96720.47;;;22.58;53.00
74982;BME280;63532;50.766;18.944;2022-09-27T12:56:17;96715.47;;;22.66;53.40
74982;BME280;63532;50.766;18.944;2022-09-27T13:01:16;96713.69;;;22.75;53.86
74982;BME280;63532;50.766;18.944;2022-09-27T13:08:52;96710.56;;;22.63;53.22
74982;BME280;63532;50.766;18.944;2022-09-27T13:13:48;96707.91;;;22.57;53.38
74982;BME280;63532;50.766;18.944;2022-09-27T13:16:14;96700.78;;;22.56;52.94
74982;BME280;63532;50.766;18.944;2022-09-27T13:24:27;96689.63;;;22.53;53.59
74982;BME280;63532;50.766;18.944;2022-09-27T13:26:53;96692.66;;;22.51;53.12
74982;BME280;63532;50.766;18.944;2022-09-27T13:29:24;96691.03;;;22.50;53.30
74982;BME280;63532;50.766;18.944;2022-09-27T13:34:36;96686.16;;;22.47;53.31
74982;BME280;63532;50.766;18.944;2022-09-27T13:37:20;96691.63;;;22.47;53.33
74982;BME280;63532;50.766;18.944;2022-09-27T13:39:46;96688.34;;;22.45;52.98
74982;BME280;63532;50.766;18.944;2022-09-27T13:42:17;96693.81;;;22.45;52.92
74982;BME280;63532;50.766;18.944;2022-09-27T13:44:52;96689.75;;;22.43;53.28
74982;BME280;63532;50.766;18.944;2022-09-27T13:47:24;96693.59;;;22.42;53.28
74982;BME280;63532;50.766;18.944;2022-09-27T13:49:56;96696.03;;;22.43;53.32
74982;BME280;63532;50.766;18.944;2022-09-27T13:54:49;96690.84;;;22.42;53.53
74982;BME280;63532;50.766;18.944;2022-09-27T13:59:59;96697.19;;;22.37;53.30
74982;BME280;63532;50.766;18.944;2022-09-27T14:02:30;96705.69;;;22.36;53.29
74982;BME280;63532;50.766;18.944;2022-09-27T14:04:57;96723.22;;;22.35;54.05
74982;BME280;63532;50.766;18.944;2022-09-27T14:07:25;96726.50;;;22.32;54.12
74982;BME280;63532;50.766;18.944;2022-09-27T14:09:52;96729.66;;;22.20;54.90
74982;BME280;63532;50.766;18.944;2022-09-27T14:12:24;96718.72;;;22.20;55.44
74982;BME280;63532;50.766;18.944;2022-09-27T14:14:51;96729.38;;;22.21;55.83
74982;BME280;63532;50.766;18.944;2022-09-27T14:17:18;96725.59;;;22.17;56.23
74982;BME280;63532;50.766;18.944;2022-09-27T14:19:44;96709.41;;;22.21;56.99
74982;BME280;63532;50.766;18.944;2022-09-27T14:22:10;96721.56;;;22.34;57.00
74982;BME280;63532;50.766;18.944;2022-09-27T14:27:17;96765.78;;;22.46;57.08
74982;BME280;63532;50.766;18.944;2022-09-27T14:29:56;96778.59;;;22.50;57.25
74982;BME280;63532;50.766;18.944;2022-09-27T14:32:23;96782.88;;;22.56;57.49
74982;BME280;63532;50.766;18.944;2022-09-27T14:35:11;96793.78;;;22.62;57.93
74982;BME280;63532;50.766;18.944;2022-09-27T14:37:56;96789.88;;;22.68;58.23